createdAt,value
2022-08-16T00:00:03.751Z,18.80
2022-08-16T00:02:33.574Z,18.90
2022-08-16T00:05:01.705Z,18.90
2022-08-16T00:07:29.902Z,18.90
2022-08-16T00:09:58.945Z,18.90
2022-08-16T00:12:30.771Z,19.00
2022-08-16T00:15:02.199Z,18.90
2022-08-16T00:17:30.186Z,18.90
2022-08-16T00:20:18.264Z,18.90
2022-08-16T00:22:51.478Z,18.90
2022-08-16T00:26:33.675Z,18.90
2022-08-16T00:28:11.325Z,18.90
2022-08-16T00:30:40.098Z,19.00
2022-08-16T00:33:10.632Z,19.00
2022-08-16T00:35:40.300Z,19.00
2022-08-16T00:38:41.240Z,19.00
2022-08-16T00:40:57.524Z,19.00
2022-08-16T00:43:40.675Z,19.00
2022-08-16T00:46:33.343Z,18.90
2022-08-16T00:49:03.447Z,18.80
2022-08-16T00:51:31.787Z,18.70
2022-08-16T00:53:59.979Z,18.70
2022-08-16T00:56:56.263Z,18.60
2022-08-16T00:59:24.094Z,18.60
2022-08-16T01:01:53.094Z,18.60
2022-08-16T01:04:29.306Z,18.60
2022-08-16T01:07:01.306Z,18.50
2022-08-16T01:09:33.298Z,18.60
2022-08-16T01:12:02.903Z,18.50
2022-08-16T01:14:38.766Z,18.50
2022-08-16T01:17:08.260Z,18.50
2022-08-16T01:19:41.096Z,18.50
2022-08-16T01:22:50.218Z,18.50
2022-08-16T01:25:10.409Z,18.40
2022-08-16T01:27:43.960Z,18.40
2022-08-16T01:30:20.342Z,18.30
2022-08-16T01:33:02.173Z,18.30
2022-08-16T01:35:37.246Z,18.30
2022-08-16T01:38:20.409Z,18.40
2022-08-16T01:40:55.487Z,18.40
2022-08-16T01:43:25.916Z,18.40
2022-08-16T01:45:57.758Z,18.40
2022-08-16T01:48:29.782Z,18.30
2022-08-16T01:51:09.608Z,18.30
2022-08-16T01:53:45.177Z,18.30
2022-08-16T01:56:31.913Z,18.30
2022-08-16T01:59:02.566Z,18.30
2022-08-16T02:01:32.810Z,18.30
2022-08-16T02:04:10.838Z,18.40
2022-08-16T02:06:46.648Z,18.40
2022-08-16T02:09:19.236Z,18.30
2022-08-16T02:11:53.824Z,18.30
2022-08-16T02:14:26.326Z,18.40
2022-08-16T02:16:56.231Z,18.40
2022-08-16T02:19:59.026Z,18.40
2022-08-16T02:22:34.072Z,18.40
2022-08-16T02:25:05.084Z,18.40
2022-08-16T02:27:35.180Z,18.40
2022-08-16T02:30:08.394Z,18.40
2022-08-16T02:32:50.259Z,18.40
2022-08-16T02:35:23.068Z,18.50
2022-08-16T02:37:53.428Z,18.50
2022-08-16T02:40:26.611Z,18.60
2022-08-16T02:42:57.075Z,18.60
2022-08-16T02:45:28.147Z,18.60
2022-08-16T02:48:01.713Z,18.60
2022-08-16T02:50:53.659Z,18.60
2022-08-16T02:53:23.835Z,18.60
2022-08-16T02:55:53.277Z,18.50
2022-08-16T02:58:24.856Z,18.50
2022-08-16T03:00:55.914Z,18.50
2022-08-16T03:03:26.018Z,18.50
2022-08-16T03:05:54.639Z,18.50
2022-08-16T03:08:51.883Z,18.60
2022-08-16T03:11:16.472Z,18.50
2022-08-16T03:13:48.719Z,18.50
2022-08-16T03:16:36.488Z,18.50
2022-08-16T03:19:07.566Z,18.50
2022-08-16T03:21:38.168Z,18.50
2022-08-16T03:24:28.778Z,18.50
2022-08-16T03:26:59.009Z,18.60
2022-08-16T03:29:31.441Z,18.60
2022-08-16T03:32:02.201Z,18.60
2022-08-16T03:34:33.218Z,18.60
2022-08-16T03:37:02.029Z,18.50
2022-08-16T03:39:30.637Z,18.50
2022-08-16T03:42:00.451Z,18.60
2022-08-16T03:44:43.242Z,18.60
2022-08-16T03:47:13.476Z,18.60
2022-08-16T03:49:51.657Z,18.50
2022-08-16T03:52:23.622Z,18.50
2022-08-16T03:54:57.907Z,18.40
2022-08-16T03:57:31.357Z,18.30
2022-08-16T04:00:01.623Z,18.30
2022-08-16T04:02:42.341Z,18.20
2022-08-16T04:05:16.649Z,18.10
2022-08-16T04:07:46.521Z,18.10
2022-08-16T04:10:35.728Z,18.10
2022-08-16T04:13:05.576Z,18.00
2022-08-16T04:15:50.159Z,18.00
2022-08-16T04:18:24.562Z,17.90
2022-08-16T04:20:56.446Z,17.90
2022-08-16T04:23:27.875Z,17.90
2022-08-16T04:25:57.585Z,17.90
2022-08-16T04:28:56.666Z,18.00
2022-08-16T04:31:20.221Z,18.00
2022-08-16T04:33:51.229Z,18.00
2022-08-16T04:36:22.091Z,18.10
2022-08-16T04:38:52.499Z,18.10
2022-08-16T04:41:32.852Z,18.20
2022-08-16T04:44:52.455Z,18.20
2022-08-16T04:47:02.628Z,18.20
2022-08-16T04:49:38.666Z,18.30
2022-08-16T04:52:33.847Z,18.30
2022-08-16T04:55:03.304Z,18.40
2022-08-16T04:57:31.643Z,18.40
2022-08-16T05:00:31.811Z,18.50
2022-08-16T05:02:55.978Z,18.50
2022-08-16T05:05:24.948Z,18.70
2022-08-16T05:08:00.219Z,18.60
2022-08-16T05:10:32.637Z,18.80
2022-08-16T05:13:02.772Z,18.80
2022-08-16T05:15:31.106Z,18.90
2022-08-16T05:18:03.879Z,19.00
2022-08-16T05:21:01.427Z,19.00
2022-08-16T05:23:31.745Z,19.00
2022-08-16T05:26:02.353Z,19.10
2022-08-16T05:28:31.104Z,19.20
2022-08-16T05:31:07.767Z,19.20
2022-08-16T05:33:38.050Z,19.30
2022-08-16T05:36:14.403Z,19.30
2022-08-16T05:38:50.560Z,19.40
2022-08-16T05:41:20.445Z,19.40
2022-08-16T05:43:51.147Z,19.40
2022-08-16T05:46:36.989Z,19.50
2022-08-16T05:49:22.365Z,19.50
2022-08-16T05:51:55.481Z,19.60
2022-08-16T05:54:25.818Z,19.60
2022-08-16T05:57:00.024Z,19.60
2022-08-16T05:59:29.374Z,19.70
2022-08-16T06:01:58.856Z,19.60
2022-08-16T06:04:37.701Z,19.70
2022-08-16T06:07:24.587Z,19.60
2022-08-16T06:10:09.832Z,19.60
2022-08-16T06:12:39.536Z,19.70
2022-08-16T06:15:11.531Z,19.70
2022-08-16T06:17:44.592Z,19.80
2022-08-16T06:20:35.187Z,19.80
2022-08-16T06:23:17.268Z,20.00
2022-08-16T06:26:14.905Z,20.00
2022-08-16T06:28:47.465Z,20.10
2022-08-16T06:31:24.642Z,20.20
2022-08-16T06:33:54.213Z,20.30
2022-08-16T06:36:26.641Z,20.30
2022-08-16T06:39:15.183Z,20.50
2022-08-16T06:41:53.135Z,20.50
2022-08-16T06:44:39.762Z,20.70
2022-08-16T06:47:24.358Z,20.80
2022-08-16T06:50:21.975Z,21.00
2022-08-16T06:52:59.641Z,21.20
2022-08-16T06:55:34.444Z,21.40
2022-08-16T06:58:08.350Z,21.50
2022-08-16T07:00:38.644Z,21.60
2022-08-16T07:03:27.629Z,21.80
2022-08-16T07:06:02.123Z,21.80
2022-08-16T07:08:37.744Z,21.90
2022-08-16T07:11:06.387Z,22.10
2022-08-16T07:14:00.182Z,22.20
2022-08-16T07:16:29.932Z,22.30
2022-08-16T07:19:01.651Z,22.60
2022-08-16T07:21:45.810Z,22.70
2022-08-16T07:24:30.508Z,22.60
2022-08-16T07:27:08.637Z,22.50
2022-08-16T07:29:41.970Z,22.50
2022-08-16T07:32:11.664Z,22.60
2022-08-16T07:34:48.526Z,22.60
2022-08-16T07:37:18.920Z,22.70
2022-08-16T07:40:14.380Z,22.90
2022-08-16T07:42:46.009Z,23.00
2022-08-16T07:45:16.895Z,23.10
2022-08-16T07:47:51.274Z,23.20
2022-08-16T07:50:56.423Z,23.20
2022-08-16T07:53:09.371Z,23.30
2022-08-16T07:55:47.626Z,23.40
2022-08-16T07:58:33.947Z,23.60
2022-08-16T08:01:10.947Z,23.70
2022-08-16T08:03:52.291Z,23.80
2022-08-16T08:06:28.556Z,23.80
2022-08-16T08:09:00.641Z,23.90
2022-08-16T08:11:31.911Z,23.90
2022-08-16T08:14:06.608Z,23.90
2022-08-16T08:16:45.390Z,23.90
2022-08-16T08:19:22.574Z,23.90
2022-08-16T08:21:59.559Z,23.90
2022-08-16T08:24:44.086Z,24.00
2022-08-16T08:27:23.109Z,24.10
2022-08-16T08:30:49.945Z,24.20
2022-08-16T08:32:57.028Z,24.30
2022-08-16T08:35:28.818Z,24.50
2022-08-16T08:37:58.838Z,24.60
2022-08-16T08:40:30.562Z,24.50
2022-08-16T08:43:12.014Z,24.50
2022-08-16T08:45:46.973Z,24.50
2022-08-16T08:48:32.792Z,24.50
2022-08-16T08:51:11.218Z,24.40
2022-08-16T08:53:57.597Z,24.50
2022-08-16T08:56:29.977Z,24.50
2022-08-16T08:59:16.417Z,24.70
2022-08-16T09:01:56.936Z,24.80
2022-08-16T09:04:40.315Z,24.80
2022-08-16T09:07:08.898Z,24.70
2022-08-16T09:09:41.219Z,24.80
2022-08-16T09:12:31.157Z,24.90
2022-08-16T09:15:10.116Z,25.00
2022-08-16T09:17:51.779Z,24.90
2022-08-16T09:20:26.258Z,24.80
2022-08-16T09:22:55.366Z,24.70
2022-08-16T09:25:43.272Z,24.80
2022-08-16T09:29:13.913Z,24.90
2022-08-16T09:31:20.348Z,24.90
2022-08-16T09:33:52.117Z,24.90
2022-08-16T09:36:32.039Z,24.90
2022-08-16T09:39:03.286Z,24.90
2022-08-16T09:41:32.121Z,24.80
2022-08-16T09:45:09.546Z,24.80
2022-08-16T09:46:57.589Z,24.80
2022-08-16T09:49:37.221Z,24.80
2022-08-16T09:52:06.169Z,24.90
2022-08-16T09:54:34.299Z,25.10
2022-08-16T09:57:02.471Z,25.50
2022-08-16T09:59:31.360Z,25.90
2022-08-16T10:02:26.426Z,26.10
2022-08-16T10:04:57.355Z,26.00
2022-08-16T10:07:26.909Z,26.00
2022-08-16T10:10:30.375Z,26.00
2022-08-16T10:13:14.547Z,25.80
2022-08-16T10:15:55.727Z,25.60
2022-08-16T10:18:56.445Z,25.60
2022-08-16T10:21:16.758Z,25.60
2022-08-16T10:23:45.262Z,25.50
2022-08-16T10:27:18.016Z,25.50
2022-08-16T10:29:04.887Z,25.50
2022-08-16T10:31:43.715Z,25.40
2022-08-16T10:34:31.434Z,25.40
2022-08-16T10:37:00.720Z,25.50
2022-08-16T10:39:40.691Z,25.70
2022-08-16T10:42:10.474Z,25.90
2022-08-16T10:44:42.466Z,26.00
2022-08-16T10:47:11.507Z,26.30
2022-08-16T10:49:41.235Z,26.50
2022-08-16T10:52:18.009Z,26.70
2022-08-16T10:57:35.585Z,27.20
2022-08-16T11:00:21.056Z,27.60
2022-08-16T11:02:59.579Z,27.70
2022-08-16T11:08:31.188Z,28.30
2022-08-16T11:11:11.824Z,28.50
2022-08-16T11:14:11.381Z,28.40
2022-08-16T11:19:24.318Z,29.00
2022-08-16T11:24:44.907Z,29.50
2022-08-16T11:27:20.108Z,29.50
2022-08-16T11:29:52.174Z,29.30
2022-08-16T11:32:22.637Z,29.10
2022-08-16T11:35:15.846Z,29.30
2022-08-16T11:38:46.600Z,29.90
2022-08-16T11:40:44.466Z,30.60
2022-08-16T11:43:12.915Z,31.20
2022-08-16T11:45:53.809Z,31.70
2022-08-16T11:48:23.350Z,31.70
2022-08-16T11:50:51.324Z,31.30
2022-08-16T11:53:22.006Z,30.90
2022-08-16T11:55:54.852Z,30.60
2022-08-16T11:58:24.439Z,30.50
2022-08-16T12:00:53.823Z,30.60
2022-08-16T12:03:34.614Z,30.80
2022-08-16T12:06:10.842Z,31.20
2022-08-16T12:08:57.409Z,31.50
2022-08-16T12:11:31.596Z,31.40
2022-08-16T12:14:00.718Z,31.50
2022-08-16T12:16:30.970Z,31.70
2022-08-16T12:19:02.958Z,31.70
2022-08-16T12:21:58.932Z,31.60
2022-08-16T12:24:23.895Z,31.60
2022-08-16T12:26:52.069Z,31.60
2022-08-16T12:29:20.476Z,32.00
2022-08-16T12:31:59.427Z,32.20
2022-08-16T12:34:37.479Z,32.20
2022-08-16T12:37:10.383Z,32.70
2022-08-16T12:39:47.151Z,33.20
2022-08-16T12:42:20.634Z,33.70
2022-08-16T12:44:49.462Z,33.90
2022-08-16T12:47:36.655Z,33.50
2022-08-16T12:50:07.457Z,33.10
2022-08-16T12:52:44.400Z,33.10
2022-08-16T12:55:24.073Z,32.70
2022-08-16T12:58:14.149Z,32.00
2022-08-16T13:00:58.373Z,31.70
2022-08-16T13:03:28.332Z,32.00
2022-08-16T13:06:00.242Z,32.50
2022-08-16T13:08:30.914Z,32.70
2022-08-16T13:11:04.259Z,32.50
2022-08-16T13:13:34.652Z,32.30
2022-08-16T13:16:15.535Z,32.20
2022-08-16T13:18:52.422Z,31.50
2022-08-16T13:21:23.761Z,31.30
2022-08-16T13:23:55.475Z,31.50
2022-08-16T13:26:26.180Z,31.50
2022-08-16T13:28:55.093Z,31.30
2022-08-16T13:31:23.941Z,31.20
2022-08-16T13:33:54.472Z,31.30
2022-08-16T13:36:48.122Z,31.60
2022-08-16T13:39:14.614Z,31.90
2022-08-16T13:41:43.984Z,32.40
2022-08-16T13:44:21.653Z,33.00
2022-08-16T13:46:49.870Z,33.30
2022-08-16T13:49:18.893Z,33.70
2022-08-16T13:51:49.081Z,34.40
2022-08-16T13:56:46.876Z,36.00
2022-08-16T13:59:19.893Z,35.60
2022-08-16T14:01:55.495Z,35.50
2022-08-16T14:04:27.325Z,35.10
2022-08-16T14:06:57.206Z,34.90
2022-08-16T14:09:27.323Z,33.90
2022-08-16T14:11:58.859Z,33.20
2022-08-16T14:14:30.151Z,33.50
2022-08-16T14:16:59.654Z,34.10
2022-08-16T14:19:29.533Z,34.50
2022-08-16T14:22:14.176Z,34.40
2022-08-16T14:24:47.736Z,33.80
2022-08-16T14:27:18.941Z,32.70
2022-08-16T14:29:49.374Z,32.40
2022-08-16T14:32:32.543Z,32.50
2022-08-16T14:35:04.751Z,32.40
2022-08-16T14:37:36.039Z,32.40
2022-08-16T14:40:05.904Z,32.30
2022-08-16T14:42:36.679Z,32.00
2022-08-16T14:45:14.193Z,31.80
2022-08-16T14:47:42.505Z,31.90
2022-08-16T14:50:14.426Z,31.90
2022-08-16T14:52:55.150Z,32.00
2022-08-16T14:55:25.915Z,32.10
2022-08-16T14:57:56.009Z,32.40
2022-08-16T15:00:32.708Z,32.70
2022-08-16T15:03:09.723Z,33.30
2022-08-16T15:05:40.506Z,34.30
2022-08-16T15:08:09.931Z,35.30
2022-08-16T15:10:42.761Z,36.10
2022-08-16T15:13:15.534Z,37.20
2022-08-16T15:15:45.218Z,37.70
2022-08-16T15:18:27.898Z,38.30
2022-08-16T15:20:56.394Z,38.60
2022-08-16T15:23:25.720Z,39.00
2022-08-16T15:26:03.650Z,38.80
2022-08-16T15:28:36.619Z,38.90
2022-08-16T15:31:08.066Z,38.50
2022-08-16T15:33:43.433Z,38.00
2022-08-16T15:36:17.473Z,37.50
2022-08-16T15:39:02.271Z,37.00
2022-08-16T15:42:02.968Z,37.30
2022-08-16T15:44:44.137Z,38.20
2022-08-16T15:47:19.498Z,38.00
2022-08-16T15:49:53.082Z,38.00
2022-08-16T15:52:29.739Z,38.40
2022-08-16T15:55:00.988Z,38.50
2022-08-16T15:57:41.847Z,38.70
2022-08-16T16:00:14.639Z,38.70
2022-08-16T16:02:43.229Z,38.90
2022-08-16T16:05:11.474Z,39.10
2022-08-16T16:07:55.680Z,39.40
2022-08-16T16:10:28.336Z,39.50
2022-08-16T16:13:00.240Z,39.50
2022-08-16T16:15:32.864Z,39.30
2022-08-16T16:18:09.074Z,39.80
2022-08-16T16:20:42.274Z,39.50
2022-08-16T16:23:11.660Z,38.50
2022-08-16T16:25:43.622Z,38.50
2022-08-16T16:29:06.058Z,37.80
2022-08-16T16:31:04.614Z,36.90
2022-08-16T16:33:36.854Z,36.90
2022-08-16T16:36:06.981Z,36.70
2022-08-16T16:38:35.498Z,37.50
2022-08-16T16:41:09.288Z,37.80
2022-08-16T16:43:40.781Z,37.10
2022-08-16T16:46:41.354Z,36.50
2022-08-16T16:49:03.115Z,36.30
2022-08-16T16:51:40.712Z,36.60
2022-08-16T16:54:12.932Z,36.80
2022-08-16T16:56:49.785Z,36.90
2022-08-16T16:59:18.200Z,37.10
2022-08-16T17:01:59.080Z,36.80
2022-08-16T17:04:38.906Z,37.00
2022-08-16T17:07:10.590Z,36.90
2022-08-16T17:09:40.523Z,37.00
2022-08-16T17:12:09.995Z,37.10
2022-08-16T17:14:43.163Z,36.90
2022-08-16T17:17:13.168Z,36.90
2022-08-16T17:19:41.887Z,37.10
2022-08-16T17:22:13.935Z,36.70
2022-08-16T17:24:44.762Z,36.40
2022-08-16T17:27:18.019Z,36.00
2022-08-16T17:29:47.540Z,35.40
2022-08-16T17:32:34.384Z,35.00
2022-08-16T17:35:18.105Z,34.30
2022-08-16T17:37:51.810Z,34.50
2022-08-16T17:40:36.083Z,34.70
2022-08-16T17:43:11.430Z,34.20
2022-08-16T17:45:40.927Z,33.30
2022-08-16T17:48:10.761Z,32.60
2022-08-16T17:50:39.785Z,32.00
2022-08-16T17:53:08.792Z,31.60
2022-08-16T17:55:38.632Z,31.30
2022-08-16T17:58:22.990Z,30.80
2022-08-16T18:00:54.160Z,30.10
2022-08-16T18:04:02.882Z,29.60
2022-08-16T18:06:17.684Z,29.30
2022-08-16T18:08:48.631Z,29.10
2022-08-16T18:11:25.679Z,29.10
2022-08-16T18:13:55.370Z,28.90
2022-08-16T18:16:24.100Z,28.70
2022-08-16T18:18:53.584Z,28.50
2022-08-16T18:21:40.049Z,28.40
2022-08-16T18:24:08.836Z,28.30
2022-08-16T18:26:37.294Z,28.10
2022-08-16T18:29:06.323Z,28.00
2022-08-16T18:31:34.994Z,27.90
2022-08-16T18:34:05.057Z,27.80
2022-08-16T18:36:33.299Z,27.70
2022-08-16T18:39:01.856Z,27.60
2022-08-16T18:41:30.461Z,27.60
2022-08-16T18:44:26.805Z,27.40
2022-08-16T18:46:51.043Z,27.30
2022-08-16T18:49:21.006Z,27.10
2022-08-16T18:51:50.607Z,27.00
2022-08-16T18:54:19.446Z,26.80
2022-08-16T18:56:54.224Z,26.50
2022-08-16T18:59:26.381Z,26.30
2022-08-16T19:01:59.658Z,26.10
2022-08-16T19:04:47.805Z,25.80
2022-08-16T19:07:18.331Z,25.60
2022-08-16T19:09:46.774Z,25.40
2022-08-16T19:12:15.692Z,25.20
2022-08-16T19:14:45.304Z,25.00
2022-08-16T19:17:13.354Z,24.80
2022-08-16T19:19:42.684Z,24.60
2022-08-16T19:22:10.822Z,24.40
2022-08-16T19:24:39.136Z,24.30
2022-08-16T19:27:10.083Z,24.10
2022-08-16T19:29:38.187Z,24.00
2022-08-16T19:32:15.875Z,23.80
2022-08-16T19:34:45.360Z,23.70
2022-08-16T19:37:13.382Z,23.60
2022-08-16T19:39:41.445Z,23.40
2022-08-16T19:42:15.172Z,23.30
2022-08-16T19:44:44.720Z,23.10
2022-08-16T19:47:13.581Z,23.00
2022-08-16T19:49:41.954Z,23.00
2022-08-16T19:52:13.695Z,23.00
2022-08-16T19:54:42.081Z,22.90
2022-08-16T19:57:10.529Z,22.80
2022-08-16T19:59:40.823Z,22.70
2022-08-16T20:02:35.670Z,22.60
2022-08-16T20:05:05.461Z,22.50
2022-08-16T20:07:34.892Z,22.40
2022-08-16T20:10:03.151Z,22.40
2022-08-16T20:12:32.323Z,22.40
2022-08-16T20:15:00.310Z,22.30
2022-08-16T20:17:28.245Z,22.10
2022-08-16T20:19:56.395Z,22.00
2022-08-16T20:22:51.662Z,21.80
2022-08-16T20:25:28.006Z,21.80
2022-08-16T20:27:57.432Z,21.70
2022-08-16T20:30:26.445Z,21.60
2022-08-16T20:32:55.254Z,21.50
2022-08-16T20:35:25.106Z,21.50
2022-08-16T20:37:53.293Z,21.50
2022-08-16T20:40:34.773Z,21.30
2022-08-16T20:43:07.344Z,21.30
2022-08-16T20:45:36.156Z,21.30
2022-08-16T20:48:05.868Z,21.20
2022-08-16T20:50:34.261Z,21.20
2022-08-16T20:53:02.875Z,21.10
2022-08-16T20:55:34.654Z,21.10
2022-08-16T20:58:02.678Z,21.00
2022-08-16T21:00:32.192Z,21.00
2022-08-16T21:03:00.212Z,20.90
2022-08-16T21:05:31.112Z,20.80
2022-08-16T21:08:00.186Z,20.80
2022-08-16T21:10:28.713Z,20.80
2022-08-16T21:13:02.597Z,20.70
2022-08-16T21:15:33.610Z,20.60
2022-08-16T21:18:02.399Z,20.50
2022-08-16T21:20:30.418Z,20.50
2022-08-16T21:23:01.854Z,20.50
2022-08-16T21:25:31.090Z,20.50
2022-08-16T21:28:41.182Z,20.40
2022-08-16T21:30:49.363Z,20.40
2022-08-16T21:33:21.595Z,20.30
2022-08-16T21:35:52.283Z,20.20
2022-08-16T21:38:29.320Z,20.20
2022-08-16T21:40:58.669Z,20.10
2022-08-16T21:43:31.743Z,20.10
2022-08-16T21:46:00.582Z,20.10
2022-08-16T21:48:35.106Z,20.00
2022-08-16T21:51:05.361Z,20.00
2022-08-16T21:53:34.648Z,19.90
2022-08-16T21:56:03.112Z,19.80
2022-08-16T21:58:32.635Z,19.70
2022-08-16T22:01:01.035Z,19.60
2022-08-16T22:03:29.986Z,19.60
2022-08-16T22:06:05.859Z,19.70
2022-08-16T22:08:49.612Z,19.70
2022-08-16T22:11:19.741Z,19.70
2022-08-16T22:13:57.277Z,19.60
2022-08-16T22:16:29.559Z,19.60
2022-08-16T22:18:57.682Z,19.60
2022-08-16T22:21:26.055Z,19.50
2022-08-16T22:23:57.403Z,19.50
2022-08-16T22:26:30.872Z,19.40
2022-08-16T22:29:01.922Z,19.30
2022-08-16T22:31:30.198Z,19.30
2022-08-16T22:33:58.251Z,19.40
2022-08-16T22:36:28.255Z,19.40
2022-08-16T22:38:58.204Z,19.40
2022-08-16T22:41:27.397Z,19.30
2022-08-16T22:43:55.971Z,19.30
2022-08-16T22:46:25.648Z,19.20
2022-08-16T22:48:53.632Z,19.30
2022-08-16T22:51:23.009Z,19.20
2022-08-16T22:53:51.443Z,19.30
2022-08-16T22:56:21.168Z,19.40
2022-08-16T22:58:50.004Z,19.40
2022-08-16T23:01:20.088Z,19.30
2022-08-16T23:03:49.666Z,19.30
2022-08-16T23:06:18.773Z,19.20
2022-08-16T23:08:47.093Z,19.20
2022-08-16T23:11:20.270Z,19.10
2022-08-16T23:13:53.076Z,19.00
2022-08-16T23:16:25.152Z,19.00
2022-08-16T23:19:05.602Z,19.00
2022-08-16T23:21:34.050Z,18.90
2022-08-16T23:24:02.624Z,18.90
2022-08-16T23:26:46.369Z,19.00
2022-08-16T23:29:24.691Z,18.90
2022-08-16T23:31:56.783Z,18.90
2022-08-16T23:34:27.742Z,18.90
2022-08-16T23:36:55.933Z,18.80
2022-08-16T23:39:24.686Z,18.70
2022-08-16T23:41:52.874Z,18.70
2022-08-16T23:44:56.922Z,18.70
2022-08-16T23:47:09.566Z,18.60
2022-08-16T23:50:01.897Z,18.60
2022-08-16T23:52:42.292Z,18.60
2022-08-16T23:55:16.355Z,18.60
2022-08-16T23:57:45.989Z,18.50
